createdAt,value
2023-10-24T00:02:07.649Z,98413.88
2023-10-24T00:04:36.480Z,98413.75
2023-10-24T00:07:06.602Z,98405.09
2023-10-24T00:09:35.490Z,98411.03
2023-10-24T00:12:05.222Z,98398.03
2023-10-24T00:14:33.894Z,98404.00
2023-10-24T00:17:02.747Z,98419.41
2023-10-24T00:19:31.942Z,98438.03
2023-10-24T00:22:00.820Z,98457.78
2023-10-24T00:24:30.967Z,98443.19
2023-10-24T00:26:59.667Z,98424.25
2023-10-24T00:29:29.406Z,98424.25
2023-10-24T00:31:58.229Z,98435.47
2023-10-24T00:34:27.001Z,98449.13
2023-10-24T00:36:55.819Z,98446.56
2023-10-24T00:39:24.707Z,98449.00
2023-10-24T00:41:54.822Z,98453.28
2023-10-24T00:44:23.643Z,98460.19
2023-10-24T00:46:52.454Z,98455.06
2023-10-24T00:49:21.336Z,98449.94
2023-10-24T00:51:50.077Z,98449.94
2023-10-24T00:54:18.994Z,98444.00
2023-10-24T00:56:49.361Z,98442.22
2023-10-24T00:59:22.290Z,98441.44
2023-10-24T01:01:52.158Z,98440.59
2023-10-24T01:04:22.293Z,98444.78
2023-10-24T01:06:51.322Z,98431.16
2023-10-24T01:09:20.100Z,98433.72
2023-10-24T01:11:50.398Z,98423.47
2023-10-24T01:14:20.505Z,98411.41
2023-10-24T01:16:49.256Z,98408.84
2023-10-24T01:19:18.272Z,98406.28
2023-10-24T01:21:50.039Z,98414.78
2023-10-24T01:24:19.560Z,98414.78
2023-10-24T01:26:48.684Z,98410.47
2023-10-24T01:29:17.607Z,98418.19
2023-10-24T01:31:46.457Z,98421.53
2023-10-24T01:34:15.214Z,98432.63
2023-10-24T01:36:44.234Z,98442.91
2023-10-24T01:39:14.335Z,98432.63
2023-10-24T01:41:43.635Z,98418.81
2023-10-24T01:44:12.704Z,98408.56
2023-10-24T01:46:41.759Z,98405.03
2023-10-24T01:49:10.768Z,98419.50
2023-10-24T01:51:39.686Z,98393.00
2023-10-24T01:54:08.776Z,98392.19
2023-10-24T01:56:39.347Z,98391.25
2023-10-24T01:59:08.516Z,98379.06
2023-10-24T02:01:37.425Z,98386.75
2023-10-24T02:04:06.786Z,98377.31
2023-10-24T02:06:35.593Z,98371.34
2023-10-24T02:09:04.901Z,98369.63
2023-10-24T02:11:33.873Z,98367.06
2023-10-24T02:14:04.061Z,98361.09
2023-10-24T02:16:35.487Z,98365.28
2023-10-24T02:19:04.271Z,98378.13
2023-10-24T02:21:33.011Z,98375.53
2023-10-24T02:24:01.713Z,98368.66
2023-10-24T02:26:30.748Z,98358.41
2023-10-24T02:29:00.338Z,98372.03
2023-10-24T02:31:30.586Z,98360.97
2023-10-24T02:33:59.290Z,98361.75
2023-10-24T02:36:28.021Z,98374.59
2023-10-24T02:38:56.774Z,98377.97
2023-10-24T02:41:25.968Z,98389.06
2023-10-24T02:43:55.427Z,98391.63
2023-10-24T02:46:24.337Z,98390.81
2023-10-24T02:48:56.461Z,98390.81
2023-10-24T02:51:25.313Z,98394.19
2023-10-24T02:53:53.982Z,98399.34
2023-10-24T02:56:23.075Z,98398.38
2023-10-24T02:58:52.179Z,98389.06
2023-10-24T03:01:20.957Z,98396.63
2023-10-24T03:03:49.817Z,98400.94
2023-10-24T03:06:21.019Z,98401.75
2023-10-24T03:08:51.378Z,98397.41
2023-10-24T03:11:24.344Z,98397.41
2023-10-24T03:13:55.483Z,98400.81
2023-10-24T03:16:24.676Z,98404.19
2023-10-24T03:18:53.671Z,98395.69
2023-10-24T03:21:24.050Z,98396.63
2023-10-24T03:23:52.912Z,98397.28
2023-10-24T03:26:21.907Z,98405.81
2023-10-24T03:28:50.729Z,98405.81
2023-10-24T03:31:19.997Z,98402.25
2023-10-24T03:33:48.702Z,98402.25
2023-10-24T03:36:17.470Z,98409.03
2023-10-24T03:38:47.871Z,98411.59
2023-10-24T03:41:16.632Z,98404.72
2023-10-24T03:43:49.644Z,98405.50
2023-10-24T03:46:18.587Z,98410.66
2023-10-24T03:48:47.328Z,98400.38
2023-10-24T03:51:15.998Z,98394.28
2023-10-24T03:53:46.031Z,98393.47
2023-10-24T03:56:14.689Z,98402.00
2023-10-24T03:58:43.969Z,98405.34
2023-10-24T04:01:12.858Z,98398.44
2023-10-24T04:03:41.730Z,98395.09
2023-10-24T04:06:13.643Z,98397.66
2023-10-24T04:08:42.434Z,98398.44
2023-10-24T04:11:17.001Z,98403.59
2023-10-24T04:13:46.949Z,98402.94
2023-10-24T04:16:19.613Z,98403.72
2023-10-24T04:18:49.853Z,98407.13
2023-10-24T04:21:19.068Z,98416.44
2023-10-24T04:23:48.068Z,98407.94
2023-10-24T04:26:18.326Z,98408.72
2023-10-24T04:28:47.047Z,98411.28
2023-10-24T04:31:15.855Z,98408.88
2023-10-24T04:33:45.568Z,98412.25
2023-10-24T04:36:15.764Z,98408.72
2023-10-24T04:38:44.502Z,98396.03
2023-10-24T04:41:13.251Z,98397.66
2023-10-24T04:43:43.434Z,98384.81
2023-10-24T04:46:12.684Z,98392.50
2023-10-24T04:48:41.397Z,98377.91
2023-10-24T04:51:13.736Z,98372.75
2023-10-24T04:53:42.442Z,98356.56
2023-10-24T04:56:11.416Z,98341.94
2023-10-24T04:58:40.194Z,98342.75
2023-10-24T05:01:10.640Z,98344.50
2023-10-24T05:03:39.849Z,98348.06
2023-10-24T05:06:08.615Z,98341.94
2023-10-24T05:08:37.337Z,98329.25
2023-10-24T05:11:06.022Z,98320.75
2023-10-24T05:13:34.797Z,98315.59
2023-10-24T05:16:04.315Z,98295.22
2023-10-24T05:18:34.511Z,98293.59
2023-10-24T05:21:03.192Z,98275.63
2023-10-24T05:23:31.919Z,98255.22
2023-10-24T05:26:00.880Z,98241.56
2023-10-24T05:28:31.910Z,98234.81
2023-10-24T05:31:00.810Z,98241.69
2023-10-24T05:33:31.158Z,98278.63
2023-10-24T05:36:03.920Z,98289.84
2023-10-24T05:38:33.996Z,98292.41
2023-10-24T05:41:02.980Z,98294.19
2023-10-24T05:43:31.744Z,98295.94
2023-10-24T05:46:00.472Z,98320.66
2023-10-24T05:48:29.484Z,98313.91
2023-10-24T05:50:58.117Z,98316.47
2023-10-24T05:53:28.185Z,98321.63
2023-10-24T05:55:56.930Z,98320.81
2023-10-24T05:58:25.730Z,98325.97
2023-10-24T06:00:54.491Z,98332.03
2023-10-24T06:03:23.351Z,98332.84
2023-10-24T06:05:54.058Z,98336.38
2023-10-24T06:08:23.024Z,98342.31
2023-10-24T06:11:04.989Z,98345.69
2023-10-24T06:13:34.195Z,98347.59
2023-10-24T06:16:10.958Z,98344.88
2023-10-24T06:18:40.691Z,98336.38
2023-10-24T06:21:12.240Z,98345.81
2023-10-24T06:23:41.500Z,98346.66
2023-10-24T06:26:15.565Z,98332.84
2023-10-24T06:28:44.688Z,98327.69
2023-10-24T06:31:14.157Z,98317.56
2023-10-24T06:33:42.987Z,98322.56
2023-10-24T06:36:11.783Z,98337.19
2023-10-24T06:38:40.736Z,98338.94
2023-10-24T06:41:10.665Z,98337.97
2023-10-24T06:43:40.849Z,98337.97
2023-10-24T06:46:09.585Z,98329.47
2023-10-24T06:48:38.398Z,98336.38
2023-10-24T06:51:07.324Z,98338.94
2023-10-24T06:53:36.029Z,98325.28
2023-10-24T06:56:04.852Z,98331.25
2023-10-24T06:58:33.621Z,98325.13
2023-10-24T07:01:04.006Z,98326.09
2023-10-24T07:03:32.906Z,98336.38
2023-10-24T07:06:01.683Z,98346.66
2023-10-24T07:08:30.436Z,98346.66
2023-10-24T07:10:59.258Z,98344.09
2023-10-24T07:13:28.113Z,98340.69
2023-10-24T07:15:57.542Z,98329.47
2023-10-24T07:18:27.700Z,98327.69
2023-10-24T07:21:00.125Z,98327.69
2023-10-24T07:23:28.699Z,98326.91
2023-10-24T07:26:00.958Z,98329.31
2023-10-24T07:28:29.784Z,98325.97
2023-10-24T07:30:58.530Z,98327.59
2023-10-24T07:33:28.591Z,98335.28
2023-10-24T07:35:57.271Z,98341.22
2023-10-24T07:38:25.960Z,98336.06
2023-10-24T07:40:54.715Z,98346.34
2023-10-24T07:43:23.686Z,98347.16
2023-10-24T07:45:52.622Z,98356.63
2023-10-24T07:48:21.699Z,98352.28
2023-10-24T07:50:57.167Z,98351.50
2023-10-24T07:53:27.735Z,98345.56
2023-10-24T07:55:56.511Z,98341.22
2023-10-24T07:58:25.202Z,98322.56
2023-10-24T08:00:53.936Z,98324.19
2023-10-24T08:03:22.913Z,98324.19
2023-10-24T08:05:52.444Z,98347.31
2023-10-24T08:08:22.660Z,98360.97
2023-10-24T08:10:51.444Z,98351.50
2023-10-24T08:13:20.164Z,98351.50
2023-10-24T08:15:51.464Z,98357.41
2023-10-24T08:18:20.331Z,98365.13
2023-10-24T08:20:49.621Z,98362.56
2023-10-24T08:23:18.339Z,98367.69
2023-10-24T08:25:48.475Z,98362.56
2023-10-24T08:28:17.369Z,98356.63
2023-10-24T08:30:46.154Z,98359.19
2023-10-24T08:33:16.777Z,98361.75
2023-10-24T08:35:46.653Z,98363.38
2023-10-24T08:38:15.413Z,98365.94
2023-10-24T08:40:44.243Z,98363.38
2023-10-24T08:43:14.781Z,98372.03
2023-10-24T08:45:43.724Z,98373.66
2023-10-24T08:48:13.004Z,98371.88
2023-10-24T08:50:44.163Z,98373.66
2023-10-24T08:53:15.299Z,98375.41
2023-10-24T08:55:53.184Z,98372.84
2023-10-24T08:58:23.718Z,98368.66
2023-10-24T09:00:53.768Z,98363.38
2023-10-24T09:03:22.667Z,98356.47
2023-10-24T09:05:51.434Z,98352.97
2023-10-24T09:08:20.410Z,98358.09
2023-10-24T09:10:49.233Z,98360.66
2023-10-24T09:13:18.116Z,98352.81
2023-10-24T09:16:07.968Z,98350.41
2023-10-24T09:18:38.734Z,98356.31
2023-10-24T09:21:09.556Z,98352.00
2023-10-24T09:23:39.010Z,98350.25
2023-10-24T09:26:12.378Z,98339.19
2023-10-24T09:28:42.600Z,98333.88
2023-10-24T09:31:14.249Z,98338.19
2023-10-24T09:33:42.958Z,98328.75
2023-10-24T09:36:13.875Z,98338.03
2023-10-24T09:38:46.053Z,98326.97
2023-10-24T09:41:17.365Z,98328.75
2023-10-24T09:43:50.630Z,98329.53
2023-10-24T09:46:22.148Z,98320.22
2023-10-24T09:48:53.766Z,98324.56
2023-10-24T09:51:24.269Z,98323.63
2023-10-24T09:53:53.596Z,98317.66
2023-10-24T09:56:23.354Z,98316.06
2023-10-24T09:58:52.999Z,98318.47
2023-10-24T10:01:23.835Z,98304.00
2023-10-24T10:03:53.601Z,98310.91
2023-10-24T10:06:37.143Z,98304.00
2023-10-24T10:09:14.575Z,98294.69
2023-10-24T10:11:45.223Z,98295.63
2023-10-24T10:14:24.665Z,98300.66
2023-10-24T10:17:08.088Z,98308.47
2023-10-24T10:20:06.645Z,98312.03
2023-10-24T10:22:54.527Z,98312.03
2023-10-24T10:26:08.008Z,98301.91
2023-10-24T10:28:59.420Z,98306.22
2023-10-24T10:32:35.803Z,98295.13
2023-10-24T10:34:49.223Z,98291.75
2023-10-24T10:37:19.907Z,98289.84
2023-10-24T10:40:28.957Z,98296.75
2023-10-24T10:42:57.911Z,98284.72
2023-10-24T10:45:31.048Z,98290.50
2023-10-24T10:48:02.537Z,98289.56
2023-10-24T10:50:32.316Z,98280.09
2023-10-24T10:53:29.689Z,98285.25
2023-10-24T10:56:17.220Z,98281.84
2023-10-24T10:59:14.266Z,98274.13
2023-10-24T11:02:02.556Z,98270.78
2023-10-24T11:04:33.305Z,98263.06
2023-10-24T11:07:02.061Z,98266.44
2023-10-24T11:09:36.910Z,98262.91
2023-10-24T11:12:30.378Z,98260.50
2023-10-24T11:15:27.481Z,98243.31
2023-10-24T11:17:57.496Z,98247.50
2023-10-24T11:20:29.291Z,98245.75
2023-10-24T11:22:58.153Z,98242.38
2023-10-24T11:25:28.601Z,98239.66
2023-10-24T11:28:09.168Z,98241.28
2023-10-24T11:30:37.849Z,98242.06
2023-10-24T11:33:06.587Z,98244.63
2023-10-24T11:35:36.688Z,98238.56
2023-10-24T11:38:05.436Z,98229.06
2023-10-24T11:40:34.274Z,98231.50
2023-10-24T11:43:07.694Z,98230.53
2023-10-24T11:45:38.631Z,98238.25
2023-10-24T11:48:08.078Z,98243.38
2023-10-24T11:50:46.184Z,98233.13
2023-10-24T11:53:21.755Z,98234.72
2023-10-24T11:55:51.097Z,98245.00
2023-10-24T11:58:19.936Z,98238.09
2023-10-24T12:00:48.737Z,98229.59
2023-10-24T12:03:17.565Z,98236.34
2023-10-24T12:05:57.107Z,98230.25
2023-10-24T12:08:27.148Z,98222.69
2023-10-24T12:10:57.903Z,98220.94
2023-10-24T12:13:26.662Z,98216.75
2023-10-24T12:15:55.443Z,98220.13
2023-10-24T12:18:24.478Z,98219.16
2023-10-24T12:20:54.740Z,98211.47
2023-10-24T12:23:24.737Z,98216.59
2023-10-24T12:25:53.722Z,98222.56
2023-10-24T12:28:22.397Z,98219.84
2023-10-24T12:30:51.053Z,98216.44
2023-10-24T12:33:19.757Z,98212.13
2023-10-24T12:35:48.820Z,98215.50
2023-10-24T12:38:19.009Z,98218.06
2023-10-24T12:40:48.681Z,98216.97
2023-10-24T12:43:17.401Z,98207.47
2023-10-24T12:45:46.520Z,98212.63
2023-10-24T12:48:17.742Z,98203.97
2023-10-24T12:50:48.038Z,98209.78
2023-10-24T12:53:19.175Z,98209.78
2023-10-24T12:55:47.909Z,98206.22
2023-10-24T12:58:17.080Z,98212.34
2023-10-24T13:00:46.974Z,98208.78
2023-10-24T13:03:17.936Z,98201.09
2023-10-24T13:05:48.560Z,98197.56
2023-10-24T13:08:18.770Z,98193.38
2023-10-24T13:10:48.845Z,98195.00
2023-10-24T13:13:17.596Z,98197.56
2023-10-24T13:15:46.407Z,98195.00
2023-10-24T13:18:15.211Z,98199.19
2023-10-24T13:20:43.938Z,98199.19
2023-10-24T13:23:12.656Z,98206.91
2023-10-24T13:25:42.721Z,98194.06
2023-10-24T13:28:11.411Z,98194.06
2023-10-24T13:30:46.866Z,98191.47
2023-10-24T13:33:15.890Z,98184.72
2023-10-24T13:38:16.411Z,98185.41
2023-10-24T13:40:46.574Z,98180.38
2023-10-24T13:43:15.231Z,98183.78
2023-10-24T13:45:44.059Z,98176.06
2023-10-24T13:48:12.881Z,98180.25
2023-10-24T13:50:41.774Z,98181.84
2023-10-24T13:53:10.468Z,98173.34
2023-10-24T13:55:39.433Z,98171.56
2023-10-24T13:58:09.747Z,98176.72
2023-10-24T14:00:38.800Z,98185.09
2023-10-24T14:03:08.488Z,98171.41
2023-10-24T14:05:40.833Z,98156.00
2023-10-24T14:08:09.676Z,98155.19
2023-10-24T14:10:38.556Z,98152.47
2023-10-24T14:13:07.254Z,98158.44
2023-10-24T14:15:37.328Z,98158.44
2023-10-24T14:18:06.895Z,98154.88
2023-10-24T14:20:35.598Z,98169.34
2023-10-24T14:23:04.303Z,98163.28
2023-10-24T14:25:33.078Z,98164.88
2023-10-24T14:28:01.964Z,98162.94
2023-10-24T14:30:30.626Z,98161.34
2023-10-24T14:33:00.665Z,98153.50
2023-10-24T14:35:29.690Z,98149.94
2023-10-24T14:37:59.512Z,98154.13
2023-10-24T14:40:28.193Z,98148.84
2023-10-24T14:42:59.090Z,98148.84
2023-10-24T14:45:29.607Z,98148.84
2023-10-24T14:47:58.623Z,98153.81
2023-10-24T14:50:29.228Z,98158.81
2023-10-24T14:52:58.080Z,98148.69
2023-10-24T14:55:26.911Z,98151.25
2023-10-24T14:57:55.740Z,98153.66
2023-10-24T15:00:24.614Z,98147.72
2023-10-24T15:02:53.346Z,98149.50
2023-10-24T15:05:22.889Z,98157.22
2023-10-24T15:07:53.087Z,98156.25
2023-10-24T15:10:21.853Z,98152.09
2023-10-24T15:12:50.489Z,98150.31
2023-10-24T15:15:20.217Z,98153.81
2023-10-24T15:17:48.869Z,98147.91
2023-10-24T15:20:17.884Z,98150.47
2023-10-24T15:22:46.640Z,98154.81
2023-10-24T15:25:16.983Z,98143.69
2023-10-24T15:27:45.625Z,98136.94
2023-10-24T15:30:14.506Z,98136.94
2023-10-24T15:32:43.318Z,98141.28
2023-10-24T15:35:12.582Z,98125.88
2023-10-24T15:37:43.073Z,98131.16
2023-10-24T15:40:12.275Z,98126.97
2023-10-24T15:42:42.281Z,98132.13
2023-10-24T15:45:12.857Z,98129.72
2023-10-24T15:47:42.879Z,98130.50
2023-10-24T15:50:12.665Z,98146.75
2023-10-24T15:52:41.465Z,98157.03
2023-10-24T15:55:25.672Z,98159.75
2023-10-24T15:57:59.182Z,98166.63
2023-10-24T16:00:31.141Z,98166.78
2023-10-24T16:03:00.456Z,98166.78
2023-10-24T16:05:30.147Z,98160.03
2023-10-24T16:07:58.758Z,98163.56
2023-10-24T16:10:27.923Z,98161.13
2023-10-24T16:12:58.234Z,98153.59
2023-10-24T16:15:26.875Z,98160.66
2023-10-24T16:17:55.649Z,98167.53
2023-10-24T16:20:25.916Z,98157.72
2023-10-24T16:22:55.116Z,98169.78
2023-10-24T16:25:23.865Z,98171.69
2023-10-24T16:27:53.070Z,98168.31
2023-10-24T16:30:23.450Z,98169.25
2023-10-24T16:32:54.074Z,98168.63
2023-10-24T16:35:23.203Z,98176.44
2023-10-24T16:37:51.816Z,98176.59
2023-10-24T16:40:20.957Z,98186.88
2023-10-24T16:42:49.750Z,98187.03
2023-10-24T16:45:19.072Z,98184.63
2023-10-24T16:47:49.129Z,98184.63
2023-10-24T16:50:17.987Z,98183.00
2023-10-24T16:52:46.696Z,98186.50
2023-10-24T16:55:15.671Z,98191.66
2023-10-24T16:57:44.661Z,98195.19
2023-10-24T17:00:16.214Z,98206.41
2023-10-24T17:02:45.111Z,98202.22
2023-10-24T17:05:15.744Z,98194.53
2023-10-24T17:07:44.557Z,98200.63
2023-10-24T17:10:14.943Z,98201.59
2023-10-24T17:12:43.953Z,98207.69
2023-10-24T17:15:13.496Z,98207.00
2023-10-24T17:17:42.302Z,98203.63
2023-10-24T17:20:12.639Z,98206.34
2023-10-24T17:22:42.804Z,98208.09
2023-10-24T17:25:11.703Z,98216.63
2023-10-24T17:27:40.592Z,98208.25
2023-10-24T17:30:11.532Z,98219.50
2023-10-24T17:32:40.407Z,98213.53
2023-10-24T17:35:09.998Z,98215.31
2023-10-24T17:37:39.144Z,98221.25
2023-10-24T17:40:14.057Z,98220.44
2023-10-24T17:42:44.329Z,98222.34
2023-10-24T17:45:13.597Z,98216.25
2023-10-24T17:47:42.473Z,98218.03
2023-10-24T17:50:13.421Z,98212.91
2023-10-24T17:52:42.240Z,98218.19
2023-10-24T17:55:12.412Z,98219.13
2023-10-24T17:57:41.812Z,98219.13
2023-10-24T18:00:12.936Z,98221.84
2023-10-24T18:02:42.032Z,98220.09
2023-10-24T18:05:11.037Z,98225.38
2023-10-24T18:07:40.130Z,98230.50
2023-10-24T18:10:09.813Z,98233.06
2023-10-24T18:12:39.921Z,98238.34
2023-10-24T18:15:13.336Z,98236.75
2023-10-24T18:17:43.279Z,98235.94
2023-10-24T18:20:13.642Z,98237.03
2023-10-24T18:22:43.223Z,98234.31
2023-10-24T18:25:12.388Z,98229.50
2023-10-24T18:27:42.406Z,98229.50
2023-10-24T18:30:11.796Z,98231.22
2023-10-24T18:32:40.436Z,98232.19
2023-10-24T18:35:10.828Z,98232.19
2023-10-24T18:37:40.048Z,98233.16
2023-10-24T18:40:10.755Z,98244.38
2023-10-24T18:42:39.406Z,98230.84
2023-10-24T18:45:10.986Z,98237.63
2023-10-24T18:47:39.889Z,98244.53
2023-10-24T18:50:10.658Z,98249.81
2023-10-24T18:52:39.716Z,98245.63
2023-10-24T18:55:11.060Z,98252.53
2023-10-24T18:57:39.920Z,98261.16
2023-10-24T19:00:11.597Z,98258.75
2023-10-24T19:02:40.759Z,98272.53
2023-10-24T19:05:22.458Z,98271.06
2023-10-24T19:07:51.230Z,98267.81
2023-10-24T19:10:20.806Z,98272.16
2023-10-24T19:12:50.552Z,98274.16
2023-10-24T19:15:22.220Z,98278.50
2023-10-24T19:17:52.299Z,98275.28
2023-10-24T19:20:21.407Z,98288.38
2023-10-24T19:22:50.883Z,98279.09
2023-10-24T19:25:20.666Z,98277.47
2023-10-24T19:27:50.347Z,98277.47
2023-10-24T19:30:21.953Z,98281.91
2023-10-24T19:32:51.584Z,98275.31
2023-10-24T19:35:24.463Z,98277.06
2023-10-24T19:37:58.077Z,98277.22
2023-10-24T19:40:28.736Z,98281.53
2023-10-24T19:42:58.045Z,98284.25
2023-10-24T19:45:29.775Z,98283.44
2023-10-24T19:48:07.950Z,98283.59
2023-10-24T19:50:37.369Z,98295.75
2023-10-24T19:53:06.792Z,98286.47
2023-10-24T19:55:36.494Z,98289.97
2023-10-24T19:58:06.555Z,98295.91
2023-10-24T20:00:37.847Z,98302.13
2023-10-24T20:03:08.843Z,98303.88
2023-10-24T20:05:39.336Z,98298.91
2023-10-24T20:08:08.932Z,98303.22
2023-10-24T20:11:41.836Z,98290.53
2023-10-24T20:13:28.472Z,98301.06
2023-10-24T20:16:01.314Z,98293.53
2023-10-24T20:18:30.961Z,98305.53
2023-10-24T20:21:00.469Z,98300.53
2023-10-24T20:23:29.919Z,98298.94
2023-10-24T20:25:58.811Z,98305.97
2023-10-24T20:28:27.607Z,98309.47
2023-10-24T20:30:57.845Z,98313.81
2023-10-24T20:33:26.745Z,98308.81
2023-10-24T20:35:55.376Z,98308.13
2023-10-24T20:38:24.077Z,98309.91
2023-10-24T20:40:52.709Z,98316.78
2023-10-24T20:43:21.448Z,98317.91
2023-10-24T20:45:50.168Z,98311.13
2023-10-24T20:48:20.913Z,98315.44
2023-10-24T20:50:49.591Z,98300.34
2023-10-24T20:53:18.296Z,98304.69
2023-10-24T20:55:47.629Z,98302.25
2023-10-24T20:58:18.662Z,98299.84
2023-10-24T21:00:47.756Z,98308.34
2023-10-24T21:03:17.232Z,98309.28
2023-10-24T21:05:47.410Z,98316.31
2023-10-24T21:08:16.349Z,98324.94
2023-10-24T21:10:46.795Z,98325.88
2023-10-24T21:13:15.486Z,98330.38
2023-10-24T21:15:45.399Z,98325.22
2023-10-24T21:18:14.136Z,98324.41
2023-10-24T21:20:42.890Z,98320.22
2023-10-24T21:23:12.925Z,98323.59
2023-10-24T21:25:41.591Z,98320.22
2023-10-24T21:28:10.429Z,98317.66
2023-10-24T21:30:40.855Z,98319.41
2023-10-24T21:33:10.053Z,98323.91
2023-10-24T21:35:42.897Z,98324.69
2023-10-24T21:38:13.105Z,98319.72
2023-10-24T21:40:52.740Z,98318.78
2023-10-24T21:43:22.631Z,98324.84
2023-10-24T21:45:52.911Z,98322.41
2023-10-24T21:48:22.151Z,98324.00
2023-10-24T21:50:50.876Z,98325.78
2023-10-24T21:53:20.991Z,98323.22
2023-10-24T21:55:49.644Z,98324.97
2023-10-24T21:58:18.571Z,98326.72
2023-10-24T22:00:47.286Z,98326.72
2023-10-24T22:03:16.124Z,98324.16
2023-10-24T22:05:45.388Z,98319.03
2023-10-24T22:08:14.201Z,98320.09
2023-10-24T22:10:44.348Z,98318.38
2023-10-24T22:13:14.211Z,98315.13
2023-10-24T22:15:43.117Z,98311.91
2023-10-24T22:18:11.978Z,98318.78
2023-10-24T22:20:40.673Z,98317.19
2023-10-24T22:23:09.761Z,98314.72
2023-10-24T22:25:38.529Z,98316.63
2023-10-24T22:28:08.691Z,98322.06
2023-10-24T22:30:37.473Z,98313.53
2023-10-24T22:33:06.422Z,98311.94
2023-10-24T22:35:35.348Z,98306.94
2023-10-24T22:38:04.394Z,98308.84
2023-10-24T22:40:33.205Z,98317.59
2023-10-24T22:43:02.212Z,98317.75
2023-10-24T22:45:32.541Z,98312.09
2023-10-24T22:48:01.447Z,98312.22
2023-10-24T22:50:30.227Z,98315.56
2023-10-24T22:52:58.881Z,98318.28
2023-10-24T22:55:27.611Z,98324.38
2023-10-24T22:57:56.338Z,98323.66
2023-10-24T23:00:25.166Z,98317.75
2023-10-24T23:02:55.254Z,98320.44
2023-10-24T23:05:24.203Z,98318.81
2023-10-24T23:07:52.804Z,98324.88
2023-10-24T23:10:22.251Z,98316.41
2023-10-24T23:12:50.973Z,98314.78
2023-10-24T23:15:19.998Z,98319.75
2023-10-24T23:17:48.846Z,98311.28
2023-10-24T23:20:19.113Z,98311.38
2023-10-24T23:22:47.898Z,98300.47
2023-10-24T23:25:16.743Z,98309.09
2023-10-24T23:27:45.960Z,98303.97
2023-10-24T23:30:15.210Z,98305.88
2023-10-24T23:32:44.034Z,98305.88
2023-10-24T23:35:12.710Z,98304.13
2023-10-24T23:37:42.801Z,98305.88
2023-10-24T23:40:13.115Z,98302.34
2023-10-24T23:42:41.971Z,98304.13
2023-10-24T23:45:11.886Z,98300.75
2023-10-24T23:47:40.969Z,98290.50
2023-10-24T23:50:11.456Z,98300.75
2023-10-24T23:52:40.288Z,98294.03
2023-10-24T23:55:10.993Z,98301.03
2023-10-24T23:57:41.006Z,98297.81
